• Join FlightAware (Why Join?)
  • Login
  • US Flag 
09:05AM EDT


 

Airport Tracker/Info


-or-


 

Live Flight TrackerFlight Track Log ✈ N784JP ✈ 26-Aug-2013 ✈ KHTO - KCDW

Flight Track Log - Related Links

Times and Time Zones

All times are in EDT time to prevent confusion due to time zone crossing. See the N784JP flight status page for this flight to view local times or setup timezone preferences in your user account.

Time Position Orientation Groundspeed Altitude Reporting Facility
EDT Latitude Longitude Course Direction KTS MPH feet Rate Location/Type
10:26PM 40.9667 -72.2833 246° West 140 161 1,200  Level New York TRACON
10:26PM 40.9500 -72.3333 246° West 191 220 2,300 2,040 Climbing New York TRACON
10:27PM 40.9667 -72.4000 288° West 171 197 5,200 1,740 Climbing New York TRACON
10:29PM 41.0000 -72.5000 294° West 242 278 6,000 360 Climbing New York TRACON
10:30PM 41.0167 -72.5833 285° West 253 291 6,000  Level New York TRACON
10:31PM 41.0333 -72.6667 285° West 243 280 6,000  Level New York TRACON
10:31PM 41.0667 -72.7500 298° West 230 265 6,000  Level New York TRACON
10:32PM 41.0833 -72.8333 285° West 230 265 6,000  Level New York TRACON
10:33PM 41.1000 -72.9000 288° West 235 270 6,000  Level New York TRACON
10:34PM 41.1333 -72.9833 298° West 247 284 6,000  Level New York TRACON
10:35PM 41.1500 -73.0667 285° West 241 277 6,000  Level New York TRACON
10:36PM 41.1667 -73.1500 285° West 236 272 6,000  Level New York TRACON
10:38PM 41.2000 -73.2500 294° West 233 268 6,000  Level New York TRACON
10:39PM 41.2167 -73.3333 285° West 236 272 6,000  Level New York TRACON
10:39PM 41.2333 -73.4000 288° West 236 272 6,000  Level New York TRACON
10:40PM 41.2500 -73.4833 285° West 240 276 6,000  Level New York TRACON
10:41PM 41.2667 -73.5667 285° West 239 275 6,000 -180 Level New York TRACON
10:42PM 41.2667 -73.6500 270° West 232 267 5,700 -600 Descending New York TRACON
10:43PM 41.2667 -73.7333 270° West 240 276 4,800 -1,200 Descending New York TRACON
10:44PM 41.2500 -73.8167 255° West 222 255 3,500 -600 Descending New York TRACON
10:46PM 41.2500 -73.9000 270° West 190 219 3,500  Level New York TRACON
10:46PM 41.2500 -73.9667 270° West 191 220 3,500  Level New York TRACON
10:48PM 41.2167 -74.0167 228° Southwest 202 232 3,500  Level New York TRACON
10:48PM 41.1667 -74.0500 207° Southwest 203 234 3,500  Level New York TRACON
10:49PM 41.1167 -74.1000 217° Southwest 201 231 3,500  Level New York TRACON